Time;durP1;ratioP1;P1;durP2;ratioP2;P2;SDS_P1;SDS_P2;PMS_P1;PMS_P2;Temp;Humidity;BMP_temperature;BMP_pressure;BME280_temperature;BME280_humidity;BME280_pressure;Samples;Min_cycle;Max_cycle;Signal;HPM_P1;HPM_P2
2021/04/02 00:00:26;;;;;;;10.10;7.95;;;4.80;84.50;;;;;;4984802;28;20018;-68
2021/04/02 00:02:52;;;;;;;11.10;7.60;;;4.70;85.00;;;;;;4986242;28;20435;-69
2021/04/02 00:05:20;;;;;;;10.93;8.13;;;4.60;85.40;;;;;;4985286;28;20053;-68
2021/04/02 00:07:46;;;;;;;12.18;8.57;;;4.50;85.20;;;;;;4985495;28;20117;-68
2021/04/02 00:10:17;;;;;;;11.70;8.15;;;4.40;85.40;;;;;;4983697;28;20043;-69
2021/04/02 00:12:43;;;;;;;;;;;4.40;85.30;;;;;;4983642;28;20026;-69
2021/04/02 00:15:20;;;;;;;11.85;8.57;;;4.30;85.70;;;;;;4983854;28;19921;-68
2021/04/02 00:17:46;;;;;;;12.23;9.25;;;4.30;86.60;;;;;;4985150;28;20029;-70
2021/04/02 00:20:15;;;;;;;11.23;8.65;;;4.20;86.80;;;;;;4983992;28;20034;-70
2021/04/02 00:22:42;;;;;;;14.13;9.30;;;4.20;86.40;;;;;;4984992;28;20042;-69
2021/04/02 00:25:10;;;;;;;12.75;9.70;;;4.10;86.20;;;;;;4982455;28;20510;-71
2021/04/02 00:27:35;;;;;;;12.45;9.38;;;4.10;86.90;;;;;;4983789;28;20030;-69
2021/04/02 00:30:15;;;;;;;14.70;10.07;;;4.10;87.00;;;;;;4983449;28;20378;-69
2021/04/02 00:32:41;;;;;;;12.48;9.55;;;4.10;86.20;;;;;;4984847;28;20442;-69
2021/04/02 00:35:08;;;;;;;12.52;9.07;;;4.10;86.10;;;;;;4983060;28;20031;-71
2021/04/02 00:37:33;;;;;;;14.02;9.65;;;4.10;85.90;;;;;;4984651;28;20038;-68
2021/04/02 00:39:59;;;;;;;14.60;10.00;;;4.10;85.90;;;;;;4983818;28;20034;-70
2021/04/02 00:42:26;;;;;;;15.48;10.20;;;4.10;86.40;;;;;;4986089;28;20034;-69
2021/04/02 00:44:52;;;;;;;12.45;9.02;;;4.10;87.10;;;;;;4985366;28;20138;-70
2021/04/02 00:47:17;;;;;;;11.65;8.55;;;4.10;86.70;;;;;;4980698;28;20479;-68
2021/04/02 00:49:43;;;;;;;10.85;8.20;;;4.00;86.60;;;;;;4982306;28;20023;-69
2021/04/02 00:52:08;;;;;;;12.38;8.50;;;3.90;86.60;;;;;;4983784;28;20037;-68
2021/04/02 00:54:34;;;;;;;11.05;7.88;;;3.90;87.40;;;;;;4984632;28;20478;-70
2021/04/02 00:57:00;;;;;;;9.25;6.57;;;3.80;87.40;;;;;;4982564;28;20049;-70
2021/04/02 00:59:25;;;;;;;9.07;5.85;;;3.70;87.00;;;;;;4983845;28;20054;-69
2021/04/02 01:01:51;;;;;;;9.50;6.40;;;3.60;87.30;;;;;;4981498;28;20446;-70
2021/04/02 01:04:17;;;;;;;10.25;6.10;;;3.50;87.70;;;;;;4986531;28;20045;-69
2021/04/02 01:06:43;;;;;;;9.13;5.30;;;3.40;87.90;;;;;;4988133;28;20042;-67
2021/04/02 01:09:09;;;;;;;9.48;5.68;;;3.40;88.60;;;;;;4984838;28;20041;-68
2021/04/02 01:11:35;;;;;;;7.70;5.40;;;3.40;88.50;;;;;;4986784;28;20472;-68
2021/04/02 01:14:00;;;;;;;8.52;5.70;;;3.30;87.80;;;;;;4989923;28;20037;-68
2021/04/02 01:16:35;;;;;;;11.82;6.50;;;3.20;88.40;;;;;;4986829;28;20383;-69
2021/04/02 01:19:09;;;;;;;9.18;5.10;;;3.10;88.40;;;;;;4982061;28;20562;-69
2021/04/02 01:21:37;;;;;;;11.48;5.68;;;3.10;88.70;;;;;;4986373;28;20100;-68
2021/04/02 01:24:22;;;;;;;9.18;6.20;;;3.10;88.80;;;;;;4985337;28;20057;-68
2021/04/02 01:27:06;;;;;;;9.32;5.80;;;3.00;88.60;;;;;;4987203;28;20034;-68
2021/04/02 01:29:55;;;;;;;8.18;5.13;;;2.90;89.00;;;;;;4982133;28;20035;-69
2021/04/02 01:32:29;;;;;;;11.50;6.60;;;2.90;89.60;;;;;;4981764;28;20133;-69
2021/04/02 01:35:05;;;;;;;10.35;6.93;;;2.80;89.90;;;;;;4986457;28;20398;-70
2021/04/02 01:37:37;;;;;;;11.98;6.95;;;2.80;89.90;;;;;;4984727;28;20040;-68
2021/04/02 01:40:08;;;;;;;14.85;8.85;;;2.80;90.00;;;;;;4988644;28;20030;-68
2021/04/02 01:42:36;;;;;;;19.17;9.68;;;2.80;90.80;;;;;;4994303;28;20080;-70
2021/04/02 01:45:04;;;;;;;14.80;9.07;;;2.90;91.30;;;;;;4991176;28;20487;-68
2021/04/02 01:47:31;;;;;;;16.73;9.70;;;2.80;91.10;;;;;;4992496;28;20030;-69
2021/04/02 01:49:58;;;;;;;18.85;10.13;;;2.80;91.20;;;;;;4987739;28;20026;-67
2021/04/02 01:52:26;;;;;;;17.25;9.55;;;2.70;91.30;;;;;;4990799;28;20423;-68
2021/04/02 01:54:53;;;;;;;15.70;9.10;;;2.70;91.10;;;;;;4987767;28;20499;-68
2021/04/02 01:57:19;;;;;;;19.15;10.05;;;2.60;90.90;;;;;;4989479;28;20050;-69
2021/04/02 01:59:46;;;;;;;19.50;10.57;;;2.60;90.80;;;;;;4984557;28;20031;-68
2021/04/02 02:02:13;;;;;;;16.17;10.25;;;2.60;91.20;;;;;;4989898;28;20027;-67
2021/04/02 02:04:40;;;;;;;21.42;12.65;;;2.50;90.90;;;;;;4989221;28;20030;-69
2021/04/02 02:07:07;;;;;;;21.42;12.05;;;2.60;91.70;;;;;;4990449;28;20030;-69
2021/04/02 02:09:39;;;;;;;24.15;12.32;;;2.60;91.90;;;;;;4988267;28;20442;-68
2021/04/02 02:12:07;;;;;;;26.23;12.27;;;2.50;92.10;;;;;;4983363;28;20388;-69
2021/04/02 02:14:35;;;;;;;26.00;14.45;;;2.50;92.30;;;;;;4987791;28;20466;-69
2021/04/02 02:17:05;;;;;;;30.50;13.98;;;2.50;92.50;;;;;;4984464;28;20023;-72
2021/04/02 02:19:35;;;;;;;26.43;13.63;;;2.50;92.50;;;;;;4987686;28;20033;-70
2021/04/02 02:22:07;;;;;;;25.63;14.02;;;2.50;92.60;;;;;;4982350;28;20391;-72
2021/04/02 02:24:35;;;;;;;24.88;13.75;;;2.50;92.50;;;;;;4989126;28;20023;-71
2021/04/02 02:27:00;;;;;;;24.52;13.45;;;2.50;92.50;;;;;;4987293;28;20053;-71
2021/04/02 02:29:27;;;;;;;22.00;12.98;;;2.40;92.30;;;;;;4986326;28;20076;-72
2021/04/02 02:31:52;;;;;;;26.65;13.52;;;2.40;92.40;;;;;;4992759;28;20036;-71
2021/04/02 02:34:18;;;;;;;21.20;12.48;;;2.50;92.40;;;;;;4994002;28;20034;-71
2021/04/02 02:36:44;;;;;;;27.23;14.77;;;2.50;92.30;;;;;;4992068;28;20076;-71
2021/04/02 02:39:12;;;;;;;33.17;16.35;;;2.60;92.10;;;;;;4988477;28;20503;-71
2021/04/02 02:41:39;;;;;;;50.80;20.00;;;2.70;92.40;;;;;;4989325;28;20042;-72
2021/04/02 02:44:05;;;;;;;79.40;22.60;;;2.80;93.20;;;;;;4984314;28;20538;-70
2021/04/02 02:46:32;;;;;;;81.35;25.23;;;3.00;93.70;;;;;;4987762;28;20069;-71
2021/04/02 02:49:18;;;;;;;91.93;26.23;;;3.10;93.90;;;;;;4987344;28;20030;-70
2021/04/02 02:51:45;;;;;;;112.72;25.55;;;3.10;93.90;;;;;;4987295;28;20309;-70
2021/04/02 02:54:19;;;;;;;70.45;26.70;;;3.20;94.00;;;;;;4988427;28;20129;-70
2021/04/02 02:56:48;;;;;;;63.17;22.45;;;3.20;94.30;;;;;;4989517;28;20577;-71
2021/04/02 02:59:17;;;;;;;128.48;24.92;;;3.20;94.10;;;;;;4987894;28;20367;-71
2021/04/02 03:01:45;;;;;;;151.07;23.33;;;3.20;94.00;;;;;;4989549;28;20057;-71
2021/04/02 03:04:14;;;;;;;220.82;22.77;;;3.10;94.00;;;;;;4986648;28;20037;-70
2021/04/02 03:06:41;;;;;;;117.57;22.33;;;3.10;94.10;;;;;;4989443;28;20077;-70
2021/04/02 03:09:10;;;;;;;179.38;22.42;;;3.10;94.30;;;;;;4986763;28;20084;-71
2021/04/02 03:11:37;;;;;;;120.25;21.05;;;3.00;94.20;;;;;;4989130;28;20034;-70
2021/04/02 03:14:03;;;;;;;199.40;23.90;;;3.00;94.60;;;;;;4988581;28;20062;-70
2021/04/02 03:16:31;;;;;;;179.15;22.10;;;3.00;94.70;;;;;;4986215;28;20061;-70
2021/04/02 03:18:59;;;;;;;167.45;21.45;;;2.90;94.80;;;;;;4985880;28;20069;-73
2021/04/02 03:21:25;;;;;;;142.95;20.25;;;3.00;94.90;;;;;;4989236;28;20243;-68
2021/04/02 03:23:52;;;;;;;128.07;21.73;;;2.90;95.10;;;;;;4987828;28;20598;-71
2021/04/02 03:26:19;;;;;;;80.65;20.92;;;3.10;95.30;;;;;;4988733;28;20023;-70
2021/04/02 03:28:47;;;;;;;88.53;20.13;;;3.10;95.20;;;;;;4986298;28;20117;-71
2021/04/02 03:31:13;;;;;;;99.75;22.40;;;3.10;95.20;;;;;;4986968;28;20030;-70
2021/04/02 03:33:46;;;;;;;58.55;20.58;;;3.10;95.10;;;;;;4991731;28;20129;-70
2021/04/02 03:36:13;;;;;;;118.60;22.25;;;3.20;95.00;;;;;;4985590;28;20034;-72
2021/04/02 03:38:44;;;;;;;131.10;20.05;;;3.30;95.00;;;;;;4987040;28;20034;-69
2021/04/02 03:41:13;;;;;;;77.40;20.10;;;3.30;95.00;;;;;;5004002;28;20030;-70
2021/04/02 03:43:39;;;;;;;156.32;22.92;;;3.40;95.00;;;;;;4987338;28;20133;-71
2021/04/02 03:46:08;;;;;;;159.73;22.23;;;3.40;94.90;;;;;;4989174;28;20105;-70
2021/04/02 03:48:36;;;;;;;111.43;20.30;;;3.40;94.70;;;;;;4985441;28;20380;-70
2021/04/02 03:51:05;;;;;;;124.63;18.52;;;3.50;94.60;;;;;;4986760;28;20392;-70
2021/04/02 03:53:38;;;;;;;129.35;19.38;;;3.40;94.30;;;;;;4983169;28;20027;-70
2021/04/02 03:56:07;;;;;;;134.30;17.65;;;3.30;94.30;;;;;;4979907;28;20018;-70
2021/04/02 03:58:34;;;;;;;132.40;18.98;;;3.30;94.40;;;;;;4990330;28;20038;-72
2021/04/02 04:01:07;;;;;;;157.65;17.52;;;3.30;94.50;;;;;;4986142;28;20464;-70
2021/04/02 04:03:34;;;;;;;133.48;16.88;;;3.10;94.30;;;;;;4985795;28;20514;-70
2021/04/02 04:06:01;;;;;;;146.80;18.73;;;3.10;94.50;;;;;;4985014;28;20552;-70
2021/04/02 04:08:29;;;;;;;138.15;18.02;;;3.10;94.80;;;;;;4986205;28;20408;-71
2021/04/02 04:10:57;;;;;;;107.15;16.30;;;3.10;94.80;;;;;;4991994;28;20479;-71
2021/04/02 04:13:24;;;;;;;71.93;15.80;;;3.00;94.80;;;;;;4987511;28;20061;-72
2021/04/02 04:15:52;;;;;;;71.18;14.32;;;2.90;94.80;;;;;;4994478;28;20041;-71
2021/04/02 04:18:20;;;;;;;53.67;14.35;;;2.90;95.00;;;;;;4985548;28;20065;-70
2021/04/02 04:20:46;;;;;;;64.85;13.50;;;2.90;95.10;;;;;;4985260;28;20515;-70
2021/04/02 04:23:13;;;;;;;72.47;13.30;;;2.80;94.90;;;;;;4999626;28;20406;-71
2021/04/02 04:25:40;;;;;;;72.13;10.18;;;2.60;94.80;;;;;;4984889;28;20100;-71
2021/04/02 04:28:09;;;;;;;76.72;10.73;;;2.50;94.80;;;;;;4988116;28;20033;-72
2021/04/02 04:30:35;;;;;;;67.07;9.95;;;2.40;94.90;;;;;;4987335;28;20534;-69
2021/04/02 04:33:02;;;;;;;96.30;11.25;;;2.30;94.90;;;;;;4979681;28;20041;-70
2021/04/02 04:35:30;;;;;;;79.57;9.30;;;2.30;95.10;;;;;;4985853;28;20391;-70
2021/04/02 04:37:56;;;;;;;44.72;8.73;;;2.30;95.00;;;;;;4987932;28;20041;-70
2021/04/02 04:40:24;;;;;;;46.17;9.45;;;2.10;95.10;;;;;;4986409;28;20068;-70
2021/04/02 04:42:50;;;;;;;47.17;8.80;;;2.10;95.10;;;;;;4996493;28;20372;-70
2021/04/02 04:45:21;;;;;;;67.25;10.10;;;2.00;95.30;;;;;;4986890;28;20080;-69
2021/04/02 04:47:47;;;;;;;;;;;2.00;95.30;;;;;;4987187;28;20057;-70
2021/04/02 04:50:14;;;;;;;49.10;10.13;;;1.70;95.10;;;;;;4980465;28;19914;-69
2021/04/02 04:52:50;;;;;;;75.85;10.30;;;1.80;95.50;;;;;;4986489;28;20126;-70
2021/04/02 04:55:17;;;;;;;66.35;10.13;;;1.60;95.40;;;;;;4986423;28;20028;-73
2021/04/02 04:57:43;;;;;;;61.72;10.13;;;1.60;95.60;;;;;;4980576;28;20035;-68
2021/04/02 05:00:11;;;;;;;72.78;11.38;;;1.50;95.70;;;;;;4982229;28;20943;-71
2021/04/02 05:02:41;;;;;;;73.85;12.38;;;1.60;96.00;;;;;;4992579;28;20488;-71
2021/04/02 05:05:08;;;;;;;71.00;14.07;;;1.70;96.10;;;;;;4985325;28;20037;-70
2021/04/02 05:07:37;;;;;;;46.08;12.38;;;1.70;96.20;;;;;;4985223;28;20524;-69
2021/04/02 05:10:03;;;;;;;37.65;12.27;;;1.70;95.90;;;;;;4998684;28;20514;-72
2021/04/02 05:12:30;;;;;;;32.53;13.15;;;1.60;96.00;;;;;;4990276;28;20030;-71
2021/04/02 05:14:58;;;;;;;31.30;13.23;;;1.70;96.10;;;;;;4989917;28;20034;-70
2021/04/02 05:17:24;;;;;;;29.65;13.32;;;1.60;95.90;;;;;;4988163;28;20030;-71
2021/04/02 05:19:51;;;;;;;31.92;13.25;;;1.60;96.00;;;;;;4992497;28;20038;-71
2021/04/02 05:22:17;;;;;;;36.08;13.60;;;1.60;95.90;;;;;;4990616;28;20341;-69
2021/04/02 05:24:42;;;;;;;32.13;14.48;;;1.60;95.90;;;;;;4990068;28;20446;-70
2021/04/02 05:27:08;;;;;;;24.83;14.02;;;1.60;95.80;;;;;;4991364;28;20030;-70
2021/04/02 05:29:34;;;;;;;33.70;14.52;;;1.70;95.90;;;;;;4984509;28;20035;-71
2021/04/02 05:32:00;;;;;;;28.83;13.38;;;1.70;95.80;;;;;;4990787;28;20125;-70
2021/04/02 05:34:26;;;;;;;31.17;14.25;;;1.70;95.70;;;;;;4989594;28;20030;-70
2021/04/02 05:36:51;;;;;;;25.63;14.70;;;1.70;95.70;;;;;;4991750;28;20530;-69
2021/04/02 05:39:17;;;;;;;24.13;14.40;;;1.80;95.60;;;;;;4997306;28;20034;-70
2021/04/02 05:42:03;;;;;;;22.55;14.38;;;1.90;95.40;;;;;;4990072;28;20030;-70
2021/04/02 05:44:34;;;;;;;22.73;13.75;;;2.10;95.30;;;;;;4984320;28;20101;-70
2021/04/02 05:47:05;;;;;;;20.23;12.70;;;2.20;95.10;;;;;;4989691;28;20034;-68
2021/04/02 05:49:30;;;;;;;18.45;12.45;;;2.20;94.60;;;;;;4987541;28;20054;-71
2021/04/02 05:51:57;;;;;;;18.48;11.77;;;2.30;94.40;;;;;;4990531;28;20054;-70
2021/04/02 05:54:41;;;;;;;17.98;11.98;;;2.50;94.30;;;;;;4991558;28;20034;-70
2021/04/02 05:57:09;;;;;;;16.88;11.02;;;2.30;93.80;;;;;;4992734;28;20394;-70
2021/04/02 05:59:41;;;;;;;15.43;10.25;;;2.50;93.80;;;;;;4990288;28;20035;-70
2021/04/02 06:02:08;;;;;;;16.83;10.60;;;2.50;93.30;;;;;;4988979;28;20069;-71
2021/04/02 06:04:34;;;;;;;15.18;9.40;;;2.60;93.60;;;;;;4984024;28;20042;-70
2021/04/02 06:07:01;;;;;;;12.43;9.00;;;2.70;93.20;;;;;;4986806;28;20030;-69
2021/04/02 06:09:27;;;;;;;11.55;8.43;;;2.70;92.90;;;;;;4984879;28;20510;-71
2021/04/02 06:11:53;;;;;;;11.82;8.15;;;2.60;92.80;;;;;;4988368;28;20032;-72
2021/04/02 06:14:19;;;;;;;15.85;9.48;;;2.80;92.80;;;;;;4980696;28;20489;-70
2021/04/02 06:16:51;;;;;;;14.00;8.50;;;2.70;92.70;;;;;;4986911;28;20026;-69
2021/04/02 06:19:18;;;;;;;13.80;9.00;;;2.90;93.00;;;;;;4980521;28;20038;-69
2021/04/02 06:21:55;;;;;;;16.45;9.35;;;2.90;92.70;;;;;;4983031;28;20623;-70
2021/04/02 06:24:41;;;;;;;15.40;8.48;;;2.90;92.90;;;;;;4984365;28;20037;-70
2021/04/02 06:27:11;;;;;;;13.80;8.30;;;2.90;92.90;;;;;;4982794;28;20034;-71
2021/04/02 06:29:41;;;;;;;13.00;9.35;;;3.00;92.70;;;;;;4981439;28;20551;-70
2021/04/02 06:32:11;;;;;;;12.40;8.13;;;3.10;92.70;;;;;;4978685;28;20046;-70
2021/04/02 06:34:45;;;;;;;10.32;7.18;;;3.30;92.60;;;;;;4973024;28;20108;-71
2021/04/02 06:37:10;;;;;;;15.02;7.50;;;3.10;91.80;;;;;;4971645;28;20027;-70
2021/04/02 06:39:36;;;;;;;15.30;7.53;;;3.20;92.20;;;;;;4971998;28;20034;-69
2021/04/02 06:42:06;;;;;;;11.32;6.90;;;3.10;92.40;;;;;;4983114;28;20073;-70
2021/04/02 06:44:32;;;;;;;12.18;7.28;;;3.10;92.50;;;;;;4980746;28;20173;-70
2021/04/02 06:46:58;;;;;;;14.65;7.35;;;3.40;92.20;;;;;;4983801;28;20055;-71
2021/04/02 06:49:25;;;;;;;10.70;6.63;;;3.60;92.50;;;;;;4976824;28;20516;-70
2021/04/02 06:51:53;;;;;;;14.88;6.60;;;3.50;91.70;;;;;;4985209;28;20297;-70
2021/04/02 06:54:24;;;;;;;10.43;5.82;;;3.60;92.00;;;;;;4979417;28;20035;-70
2021/04/02 06:56:56;;;;;;;9.73;5.97;;;3.60;92.00;;;;;;4980591;28;20033;-70
2021/04/02 06:59:25;;;;;;;10.52;5.85;;;3.60;91.60;;;;;;4989981;28;20022;-71
2021/04/02 07:01:53;;;;;;;10.52;5.25;;;3.90;91.60;;;;;;4982288;28;20026;-71
2021/04/02 07:04:20;;;;;;;13.38;5.53;;;4.00;91.30;;;;;;4983663;28;20026;-70
2021/04/02 07:06:48;;;;;;;9.95;4.88;;;4.00;91.40;;;;;;4987736;28;20078;-70
2021/04/02 07:09:18;;;;;;;10.45;4.70;;;4.00;90.60;;;;;;4985225;28;20023;-70
2021/04/02 07:11:47;;;;;;;9.57;4.78;;;4.30;90.20;;;;;;4976289;28;20026;-71
2021/04/02 07:14:13;;;;;;;12.15;4.10;;;4.40;89.30;;;;;;4991227;28;20419;-71
2021/04/02 07:16:40;;;;;;;13.30;4.20;;;4.50;89.30;;;;;;4986093;28;20033;-73
2021/04/02 07:19:06;;;;;;;14.38;3.63;;;4.40;88.90;;;;;;4977661;28;20018;-73
2021/04/02 07:21:33;;;;;;;6.72;3.63;;;4.30;88.70;;;;;;4986035;28;20026;-71
2021/04/02 07:24:00;;;;;;;11.18;3.90;;;4.40;88.70;;;;;;4975926;28;20035;-70
2021/04/02 07:26:27;;;;;;;14.00;3.33;;;4.60;87.90;;;;;;4976381;28;20067;-70
2021/04/02 07:28:53;;;;;;;9.20;3.13;;;4.60;87.80;;;;;;4976624;28;20511;-70
2021/04/02 07:31:20;;;;;;;11.65;3.33;;;4.70;87.50;;;;;;4979292;28;20040;-72
2021/04/02 07:33:47;;;;;;;14.35;2.85;;;4.70;86.90;;;;;;4974198;28;20414;-71
2021/04/02 07:36:13;;;;;;;7.82;2.13;;;4.70;86.50;;;;;;4985694;28;20025;-70
2021/04/02 07:38:39;;;;;;;7.80;2.47;;;4.80;85.40;;;;;;4986963;28;20034;-70
2021/04/02 07:41:13;;;;;;;7.88;2.08;;;4.60;85.30;;;;;;4990649;28;20034;-71
2021/04/02 07:43:50;;;;;;;6.55;2.17;;;4.60;85.60;;;;;;4981817;28;20034;-73
2021/04/02 07:46:18;;;;;;;9.45;2.22;;;4.80;85.70;;;;;;4975805;28;20118;-70
2021/04/02 07:48:49;;;;;;;8.60;2.10;;;4.80;85.30;;;;;;4986866;28;20530;-70
2021/04/02 07:51:15;;;;;;;9.20;1.93;;;5.00;85.60;;;;;;5003381;28;20029;-70
2021/04/02 07:53:44;;;;;;;17.90;2.42;;;4.90;84.90;;;;;;5007862;28;20311;-71
2021/04/02 07:56:18;;;;;;;14.55;2.50;;;5.00;84.00;;;;;;5005341;28;20125;-71
2021/04/02 07:58:50;;;;;;;11.00;2.35;;;5.10;82.70;;;;;;4996139;28;20118;-72
2021/04/02 08:01:17;;;;;;;9.07;2.42;;;5.40;82.80;;;;;;5002392;28;20366;-70
2021/04/02 08:03:45;;;;;;;13.50;2.30;;;5.10;82.20;;;;;;5001119;28;20065;-72
2021/04/02 08:06:26;;;;;;;6.00;2.10;;;5.40;82.10;;;;;;4999293;28;20589;-70
2021/04/02 08:08:52;;;;;;;9.15;1.95;;;5.50;81.70;;;;;;4996821;28;20490;-72
2021/04/02 08:11:25;;;;;;;12.68;2.38;;;5.60;80.50;;;;;;5002122;28;20100;-71
2021/04/02 08:14:09;;;;;;;10.13;2.13;;;5.60;79.50;;;;;;4999428;28;20029;-72
2021/04/02 08:16:48;;;;;;;9.90;2.40;;;5.70;78.30;;;;;;5003309;28;20528;-73
2021/04/02 08:19:31;;;;;;;13.77;2.45;;;5.50;78.90;;;;;;4997218;28;20030;-71
2021/04/02 08:21:58;;;;;;;11.93;2.15;;;5.70;78.90;;;;;;5002575;28;20281;-71
2021/04/02 08:24:27;;;;;;;14.65;2.60;;;5.90;78.70;;;;;;5001876;28;20109;-69
2021/04/02 08:26:53;;;;;;;7.80;2.25;;;6.10;78.20;;;;;;5003735;28;20387;-73
2021/04/02 08:29:20;;;;;;;8.18;2.00;;;6.10;76.70;;;;;;4999603;28;20129;-72
2021/04/02 08:31:53;;;;;;;11.13;2.03;;;6.10;76.80;;;;;;4998149;28;20123;-70
2021/04/02 08:34:21;;;;;;;10.20;1.85;;;6.20;76.90;;;;;;4998021;28;20049;-71
2021/04/02 08:36:49;;;;;;;11.75;2.80;;;6.60;76.00;;;;;;5006285;28;21788;-70
2021/04/02 08:39:17;;;;;;;8.63;2.33;;;6.40;75.40;;;;;;5000575;28;20030;-71
2021/04/02 08:41:43;;;;;;;8.85;1.40;;;6.50;75.40;;;;;;5008072;28;20383;-71
2021/04/02 08:44:09;;;;;;;10.18;2.40;;;6.90;74.20;;;;;;5004023;28;20041;-70
2021/04/02 08:46:44;;;;;;;7.82;1.77;;;6.50;73.30;;;;;;4996163;28;20030;-70
2021/04/02 08:49:12;;;;;;;8.18;2.35;;;6.70;72.70;;;;;;5005241;28;20036;-71
2021/04/02 08:51:38;;;;;;;9.20;1.98;;;6.80;73.70;;;;;;5002616;28;20038;-70
2021/04/02 08:54:10;;;;;;;10.35;2.20;;;7.10;71.00;;;;;;4999538;28;20103;-72
2021/04/02 08:56:36;;;;;;;15.48;2.92;;;7.00;71.70;;;;;;5002543;28;20079;-71
2021/04/02 08:59:07;;;;;;;9.07;2.10;;;7.20;72.30;;;;;;5004225;28;20136;-72
2021/04/02 09:01:33;;;;;;;14.98;2.45;;;7.60;70.70;;;;;;5004736;28;20041;-70
2021/04/02 09:03:59;;;;;;;12.23;2.72;;;7.60;70.70;;;;;;5001722;28;20105;-70
2021/04/02 09:06:25;;;;;;;8.88;2.70;;;7.60;70.70;;;;;;5004415;28;20159;-71
2021/04/02 09:08:51;;;;;;;8.45;1.88;;;7.50;70.90;;;;;;5006361;28;20026;-71
2021/04/02 09:11:16;;;;;;;6.00;1.52;;;7.30;70.20;;;;;;5007494;28;20616;-70
2021/04/02 09:13:47;;;;;;;12.57;2.10;;;7.10;70.50;;;;;;5006165;28;20168;-73
2021/04/02 09:16:15;;;;;;;12.50;2.10;;;7.20;70.80;;;;;;5001472;28;20026;-71
2021/04/02 09:18:55;;;;;;;9.80;2.10;;;7.20;70.60;;;;;;4996631;28;20287;-71
2021/04/02 09:21:23;;;;;;;10.60;1.85;;;7.40;70.70;;;;;;5011010;28;20117;-71
2021/04/02 09:23:53;;;;;;;14.75;2.78;;;7.40;69.80;;;;;;5006562;28;20026;-71
2021/04/02 09:26:20;;;;;;;13.45;3.38;;;7.60;71.00;;;;;;5012075;28;20084;-71
2021/04/02 09:28:47;;;;;;;11.85;2.97;;;7.70;70.10;;;;;;5003006;28;20033;-70
2021/04/02 09:31:23;;;;;;;9.88;2.17;;;7.80;70.30;;;;;;5002618;28;20030;-71
2021/04/02 09:33:57;;;;;;;14.00;2.40;;;7.90;70.50;;;;;;5004331;28;20378;-70
2021/04/02 09:36:25;;;;;;;7.72;2.10;;;7.30;70.90;;;;;;5006162;28;20025;-70
2021/04/02 09:38:51;;;;;;;10.77;2.00;;;7.10;71.30;;;;;;4999032;28;20273;-72
2021/04/02 09:41:23;;;;;;;9.38;2.05;;;7.00;72.40;;;;;;5007132;28;20557;-72
2021/04/02 09:43:53;;;;;;;8.57;2.42;;;7.20;72.60;;;;;;5001163;28;20108;-71
2021/04/02 09:46:33;;;;;;;11.63;2.40;;;7.20;73.10;;;;;;5006386;28;20026;-70
2021/04/02 09:49:08;;;;;;;12.55;2.72;;;7.10;73.80;;;;;;5006374;28;20025;-70
2021/04/02 09:51:40;;;;;;;10.85;1.85;;;7.00;73.10;;;;;;5008095;28;20383;-69
2021/04/02 09:54:10;;;;;;;11.15;2.10;;;7.10;73.20;;;;;;5003622;28;20438;-69
2021/04/02 09:56:36;;;;;;;19.50;2.58;;;6.90;73.50;;;;;;5004201;28;20076;-70
2021/04/02 09:59:03;;;;;;;10.30;2.28;;;7.00;73.30;;;;;;5004369;28;20072;-70
2021/04/02 10:01:30;;;;;;;9.18;2.33;;;6.90;73.30;;;;;;5009554;28;20033;-69
2021/04/02 10:03:56;;;;;;;17.55;2.88;;;7.00;73.30;;;;;;5006654;28;20461;-69
2021/04/02 10:06:22;;;;;;;12.02;2.80;;;7.00;73.20;;;;;;5008254;28;20113;-69
2021/04/02 10:08:47;;;;;;;13.10;2.33;;;6.70;73.70;;;;;;5010079;28;20044;-69
2021/04/02 10:11:13;;;;;;;9.15;2.28;;;7.00;74.00;;;;;;5007427;28;20529;-69
2021/04/02 10:13:39;;;;;;;10.15;2.40;;;7.00;73.70;;;;;;5010976;28;20033;-69
2021/04/02 10:16:07;;;;;;;8.75;2.55;;;6.80;74.10;;;;;;5008515;28;20028;-69
2021/04/02 10:18:34;;;;;;;12.70;3.53;;;6.90;73.80;;;;;;5008821;28;20030;-70
2021/04/02 10:21:00;;;;;;;16.80;5.15;;;7.00;73.20;;;;;;5007554;28;20386;-69
2021/04/02 10:23:25;;;;;;;10.95;2.72;;;7.10;72.60;;;;;;5006163;28;20026;-69
2021/04/02 10:25:51;;;;;;;14.38;2.58;;;6.80;72.80;;;;;;5013201;28;20037;-70
2021/04/02 10:28:17;;;;;;;8.85;2.47;;;6.90;73.30;;;;;;5009372;28;20029;-68
2021/04/02 10:30:43;;;;;;;11.13;2.63;;;6.70;73.50;;;;;;5004185;28;20044;-68
2021/04/02 10:33:08;;;;;;;13.13;2.15;;;6.70;74.00;;;;;;5003399;28;20112;-69
2021/04/02 10:35:35;;;;;;;9.48;2.33;;;6.80;74.00;;;;;;5020011;28;20030;-68
2021/04/02 10:38:02;;;;;;;8.88;2.40;;;6.90;73.80;;;;;;5008378;28;20034;-69
2021/04/02 10:40:27;;;;;;;8.90;2.63;;;6.90;73.60;;;;;;4993445;28;20116;-69
2021/04/02 10:42:53;;;;;;;11.15;2.58;;;6.90;73.70;;;;;;5000014;28;20044;-68
2021/04/02 10:45:19;;;;;;;12.02;2.53;;;6.70;72.80;;;;;;5009164;28;20379;-69
2021/04/02 10:47:44;;;;;;;13.15;2.70;;;6.90;73.10;;;;;;5006476;28;20029;-70
2021/04/02 10:50:11;;;;;;;10.13;2.55;;;6.90;72.50;;;;;;5007530;28;20034;-69
2021/04/02 10:52:37;;;;;;;9.02;2.53;;;6.90;71.50;;;;;;5007892;28;20022;-70
2021/04/02 10:55:04;;;;;;;10.07;3.15;;;7.10;72.20;;;;;;5006081;28;20375;-68
2021/04/02 10:57:29;;;;;;;10.82;2.20;;;7.00;71.80;;;;;;5006966;28;20026;-69
2021/04/02 10:59:55;;;;;;;12.65;2.70;;;7.10;71.80;;;;;;4999613;28;20486;-69
2021/04/02 11:02:21;;;;;;;11.55;2.70;;;7.10;71.40;;;;;;5003447;28;20041;-69
2021/04/02 11:04:46;;;;;;;10.82;2.83;;;7.10;71.30;;;;;;5003842;28;20060;-70
2021/04/02 11:07:12;;;;;;;14.82;3.05;;;7.10;72.20;;;;;;5007435;28;20026;-69
2021/04/02 11:09:37;;;;;;;10.82;2.75;;;7.10;72.20;;;;;;5003749;28;20095;-71
2021/04/02 11:12:04;;;;;;;15.27;2.88;;;7.00;73.40;;;;;;5005519;28;20347;-70
2021/04/02 11:14:29;;;;;;;17.67;2.72;;;7.00;73.30;;;;;;5003711;28;20076;-69
2021/04/02 11:16:57;;;;;;;11.80;2.17;;;7.00;73.40;;;;;;5000676;28;20037;-69
2021/04/02 11:19:23;;;;;;;10.40;2.35;;;7.10;73.10;;;;;;4999734;28;20129;-69
2021/04/02 11:21:50;;;;;;;12.18;2.22;;;7.10;72.70;;;;;;4992538;28;20506;-69
2021/04/02 11:24:15;;;;;;;10.60;2.50;;;7.40;72.10;;;;;;5001083;28;20038;-69
2021/04/02 11:26:41;;;;;;;8.18;2.00;;;7.30;70.90;;;;;;4998241;28;20034;-70
2021/04/02 11:29:07;;;;;;;6.32;1.75;;;7.40;70.70;;;;;;5002402;28;20540;-68
2021/04/02 11:31:33;;;;;;;8.88;1.83;;;7.10;70.40;;;;;;5005582;28;20038;-70
2021/04/02 11:33:58;;;;;;;14.90;2.72;;;7.30;70.30;;;;;;5008805;28;20026;-71
2021/04/02 11:36:24;;;;;;;9.32;1.88;;;7.10;70.60;;;;;;5003517;28;20025;-68
2021/04/02 11:38:49;;;;;;;6.03;1.83;;;7.30;71.10;;;;;;5005205;28;20506;-70
2021/04/02 11:41:15;;;;;;;9.05;1.80;;;7.10;70.50;;;;;;5004734;28;20022;-69
2021/04/02 11:43:40;;;;;;;9.20;2.30;;;7.20;70.60;;;;;;4995477;28;20065;-68
2021/04/02 11:46:06;;;;;;;10.27;2.42;;;7.20;70.00;;;;;;5008215;28;20128;-68
2021/04/02 11:48:33;;;;;;;8.15;1.85;;;7.10;70.80;;;;;;5003277;28;20033;-70
2021/04/02 11:50:59;;;;;;;10.32;1.95;;;7.20;70.80;;;;;;5004796;28;20030;-69
2021/04/02 11:53:25;;;;;;;8.60;2.33;;;7.50;70.90;;;;;;5005380;28;20030;-69
2021/04/02 11:55:51;;;;;;;12.52;2.08;;;7.30;70.90;;;;;;5002421;28;20601;-72
2021/04/02 11:58:17;;;;;;;12.95;2.63;;;7.30;70.80;;;;;;5005302;28;20041;-69
2021/04/02 12:00:43;;;;;;;12.25;2.30;;;7.30;70.70;;;;;;5002435;28;20030;-70
2021/04/02 12:03:09;;;;;;;10.43;2.40;;;7.50;71.10;;;;;;4984588;28;20076;-70
2021/04/02 12:05:36;;;;;;;5.93;2.08;;;7.40;70.00;;;;;;4996279;28;20029;-70
2021/04/02 12:08:01;;;;;;;9.25;2.25;;;7.30;70.00;;;;;;5001442;28;20029;-70
2021/04/02 12:10:27;;;;;;;11.40;2.25;;;7.30;70.50;;;;;;5004652;28;20025;-69
2021/04/02 12:12:53;;;;;;;7.75;1.98;;;7.50;70.30;;;;;;5002519;28;20026;-68
2021/04/02 12:15:18;;;;;;;11.27;2.60;;;7.70;69.90;;;;;;5002805;28;20048;-68
2021/04/02 12:17:44;;;;;;;8.68;1.88;;;7.40;69.30;;;;;;5003283;28;20100;-69
2021/04/02 12:20:14;;;;;;;10.75;1.90;;;7.30;69.50;;;;;;5005404;28;20059;-69
2021/04/02 12:22:40;;;;;;;7.82;2.13;;;7.20;69.60;;;;;;5005204;28;20072;-68
2021/04/02 12:25:10;;;;;;;6.80;1.80;;;7.40;69.30;;;;;;5003072;28;20506;-68
2021/04/02 12:27:37;;;;;;;10.90;2.13;;;7.40;69.10;;;;;;5002607;28;20029;-69
2021/04/02 12:30:05;;;;;;;8.00;1.42;;;7.60;69.10;;;;;;5000846;28;20068;-69
2021/04/02 12:32:31;;;;;;;5.32;1.58;;;7.40;68.40;;;;;;5001394;28;20592;-72
2021/04/02 12:34:56;;;;;;;11.05;1.70;;;7.50;69.10;;;;;;4984925;28;20037;-68
2021/04/02 12:37:22;;;;;;;8.43;1.85;;;7.50;68.80;;;;;;5000377;28;20022;-67
2021/04/02 12:39:48;;;;;;;7.40;1.52;;;7.50;69.10;;;;;;5001441;28;20482;-71
2021/04/02 12:42:13;;;;;;;10.00;1.98;;;7.60;68.20;;;;;;5003659;28;20018;-70
2021/04/02 12:44:39;;;;;;;5.32;1.40;;;7.30;68.60;;;;;;4999283;28;20237;-69
2021/04/02 12:47:05;;;;;;;7.68;1.75;;;7.30;68.60;;;;;;5003605;28;20040;-68
2021/04/02 12:49:30;;;;;;;7.78;1.38;;;7.50;69.20;;;;;;5003737;28;20041;-69